Time;durP1;ratioP1;P1;durP2;ratioP2;P2;SDS_P1;SDS_P2;PMS_P1;PMS_P2;Temp;Humidity;BMP_temperature;BMP_pressure;BME280_temperature;BME280_humidity;BME280_pressure;Samples;Min_cycle;Max_cycle;Signal;HPM_P1;HPM_P2
2023/10/07 19:19:36;;;;;;;8.75;2.85;;;20.00;83.90;;;;;;4969116;28;20054;-85
2023/10/07 19:22:02;;;;;;;12.32;4.00;;;19.90;83.90;;;;;;4947497;28;20422;-83
2023/10/07 19:24:31;;;;;;;14.10;3.60;;;19.90;84.00;;;;;;4960043;28;20062;-85
2023/10/07 19:26:56;;;;;;;12.77;3.03;;;19.90;84.10;;;;;;4964962;28;20491;-84
2023/10/07 19:29:22;;;;;;;8.30;2.80;;;20.00;84.10;;;;;;4943340;28;20031;-83
2023/10/07 19:31:48;;;;;;;9.63;2.97;;;20.00;84.20;;;;;;4964806;28;20507;-84
2023/10/07 19:34:16;;;;;;;9.40;3.45;;;20.00;84.20;;;;;;4956288;28;20035;-84
2023/10/07 19:36:41;;;;;;;7.20;2.88;;;20.00;84.30;;;;;;4948934;28;20379;-85
2023/10/07 19:39:07;;;;;;;9.02;3.03;;;19.90;84.30;;;;;;4973439;28;20114;-83
2023/10/07 19:41:32;;;;;;;9.63;2.65;;;19.90;84.40;;;;;;4949500;28;20035;-83
2023/10/07 19:43:58;;;;;;;8.10;2.90;;;19.90;84.50;;;;;;4955564;28;20125;-82
2023/10/07 19:46:24;;;;;;;9.45;3.63;;;19.90;84.50;;;;;;4956206;28;20399;-83
2023/10/07 19:48:50;;;;;;;11.25;4.22;;;19.90;84.50;;;;;;4956130;28;20508;-83
2023/10/07 19:51:15;;;;;;;8.23;2.65;;;19.90;84.50;;;;;;4970096;28;20077;-84
2023/10/07 19:53:43;;;;;;;11.40;3.95;;;19.90;84.60;;;;;;4973476;28;20039;-84
2023/10/07 19:56:10;;;;;;;9.18;2.97;;;19.90;84.60;;;;;;4971208;28;20062;-84
2023/10/07 19:58:37;;;;;;;9.13;3.45;;;19.90;84.70;;;;;;4968797;28;20045;-84
2023/10/07 20:01:06;;;;;;;9.45;2.72;;;19.90;84.80;;;;;;4965364;28;20039;-84
2023/10/07 20:03:32;;;;;;;8.07;3.55;;;19.90;84.80;;;;;;4973395;28;20045;-85
2023/10/07 20:06:05;;;;;;;10.52;3.47;;;19.90;84.90;;;;;;4972464;28;20042;-84
2023/10/07 20:08:32;;;;;;;10.50;3.35;;;19.80;84.90;;;;;;4969223;28;20031;-84
2023/10/07 20:10:58;;;;;;;10.52;3.47;;;19.80;85.00;;;;;;4968313;28;20399;-83
2023/10/07 20:13:25;;;;;;;6.78;3.00;;;19.80;85.00;;;;;;4957922;28;20079;-84
2023/10/07 20:15:51;;;;;;;9.38;3.30;;;19.90;85.10;;;;;;4970156;28;20035;-84
2023/10/07 20:18:17;;;;;;;11.65;3.88;;;19.90;85.10;;;;;;4972448;28;20130;-86
2023/10/07 20:20:43;;;;;;;10.80;3.40;;;19.80;85.10;;;;;;4946806;28;20449;-84
2023/10/07 20:23:09;;;;;;;9.68;3.35;;;19.90;85.20;;;;;;4977088;28;20057;-84
2023/10/07 20:25:35;;;;;;;9.50;3.35;;;19.90;85.20;;;;;;4975262;28;20066;-84
2023/10/07 20:28:03;;;;;;;9.35;3.35;;;19.80;85.20;;;;;;4965824;28;20050;-83
2023/10/07 20:30:28;;;;;;;8.35;2.75;;;19.80;85.20;;;;;;4976803;28;20415;-84
2023/10/07 20:32:56;;;;;;;6.70;2.95;;;19.80;85.20;;;;;;4976695;28;20035;-84
2023/10/07 20:35:22;;;;;;;8.60;3.63;;;19.80;85.30;;;;;;4975000;28;20084;-85
2023/10/07 20:37:48;;;;;;;8.63;3.70;;;19.80;85.40;;;;;;4966888;28;20058;-85
2023/10/07 20:40:14;;;;;;;10.35;3.13;;;19.80;85.40;;;;;;4956406;28;20483;-82
2023/10/07 20:42:43;;;;;;;10.00;3.70;;;19.80;85.50;;;;;;4949060;28;20052;-84
2023/10/07 20:45:09;;;;;;;10.82;4.32;;;19.80;85.50;;;;;;4963547;28;20050;-84
2023/10/07 20:47:35;;;;;;;13.65;4.50;;;19.80;85.40;;;;;;4959716;28;20035;-84
2023/10/07 20:50:00;;;;;;;11.38;3.83;;;19.70;85.40;;;;;;4973428;28;20087;-82
2023/10/07 20:52:26;;;;;;;13.13;4.38;;;19.70;85.60;;;;;;4949849;28;20114;-83
2023/10/07 20:54:52;;;;;;;11.20;3.75;;;19.50;85.60;;;;;;4976078;28;20089;-83
2023/10/07 20:57:17;;;;;;;10.45;3.75;;;19.50;86.00;;;;;;4958803;28;20031;-84
2023/10/07 20:59:43;;;;;;;12.23;4.75;;;19.50;86.00;;;;;;4959039;28;20019;-83
2023/10/07 21:02:08;;;;;;;11.75;4.10;;;19.40;86.30;;;;;;4976724;28;20039;-81
2023/10/07 21:04:34;;;;;;;12.70;4.55;;;19.40;86.60;;;;;;4976395;28;20038;-84
2023/10/07 21:07:00;;;;;;;12.05;4.22;;;19.30;86.80;;;;;;4958781;28;20038;-83
2023/10/07 21:09:26;;;;;;;12.60;3.80;;;19.30;87.00;;;;;;4958853;28;20082;-82
2023/10/07 21:11:52;;;;;;;10.20;3.60;;;19.20;87.10;;;;;;4976130;28;20114;-81
2023/10/07 21:14:18;;;;;;;13.13;4.18;;;19.20;87.30;;;;;;4958709;28;20106;-84
2023/10/07 21:16:44;;;;;;;11.25;3.53;;;19.20;87.50;;;;;;4976009;28;20087;-83
2023/10/07 21:19:10;;;;;;;20.30;4.25;;;19.20;87.60;;;;;;4975542;28;20046;-82
2023/10/07 21:21:36;;;;;;;10.73;3.92;;;19.10;87.70;;;;;;4955523;28;20083;-82
2023/10/07 21:24:01;;;;;;;12.30;4.03;;;19.10;88.10;;;;;;4959202;28;20069;-82
2023/10/07 21:26:27;;;;;;;13.10;4.35;;;19.10;88.10;;;;;;4975907;28;20110;-83
2023/10/07 21:28:57;;;;;;;14.15;4.13;;;19.10;88.20;;;;;;4958684;28;20415;-84
2023/10/07 21:31:25;;;;;;;11.60;3.90;;;19.10;88.30;;;;;;4968796;28;20062;-83
2023/10/07 21:33:52;;;;;;;12.75;3.78;;;19.10;88.60;;;;;;4956944;29;20038;-83
2023/10/07 21:36:18;;;;;;;12.85;4.25;;;19.00;88.70;;;;;;4958886;28;20395;-83
2023/10/07 21:38:44;;;;;;;15.18;4.05;;;19.00;88.70;;;;;;4939772;29;20391;-83
2023/10/07 21:41:10;;;;;;;13.10;3.72;;;19.00;88.80;;;;;;4956585;29;20035;-83
2023/10/07 21:43:36;;;;;;;10.48;3.65;;;19.00;88.80;;;;;;4939773;29;20042;-83
2023/10/07 21:46:02;;;;;;;12.77;4.15;;;19.00;88.90;;;;;;4956853;29;20027;-83
2023/10/07 21:48:28;;;;;;;10.13;3.55;;;19.00;89.10;;;;;;4956392;29;20399;-83
2023/10/07 21:50:55;;;;;;;14.18;3.80;;;18.90;89.00;;;;;;4956866;29;20046;-84
2023/10/07 21:53:22;;;;;;;11.40;3.50;;;18.90;89.10;;;;;;4954091;29;20399;-84
2023/10/07 21:55:47;;;;;;;12.38;4.03;;;18.90;89.20;;;;;;4935740;29;20114;-84
2023/10/07 21:58:14;;;;;;;12.75;4.55;;;18.90;89.20;;;;;;4952957;29;20088;-84
2023/10/07 22:00:43;;;;;;;10.52;3.25;;;18.90;89.70;;;;;;4935647;29;20035;-84
2023/10/07 22:03:15;;;;;;;11.70;3.60;;;18.90;89.70;;;;;;4935612;29;20551;-83
2023/10/07 22:05:46;;;;;;;9.43;3.80;;;18.80;89.70;;;;;;4935375;29;20042;-81
2023/10/07 22:08:14;;;;;;;12.05;3.20;;;18.80;89.90;;;;;;4935281;29;20299;-82
2023/10/07 22:10:41;;;;;;;9.15;3.40;;;18.80;90.00;;;;;;4951618;29;20071;-82
2023/10/07 22:13:17;;;;;;;14.00;3.50;;;18.80;90.00;;;;;;4935451;29;20035;-83
2023/10/07 22:15:51;;;;;;;13.10;3.80;;;18.80;90.00;;;;;;4952968;29;20035;-83
2023/10/07 22:18:18;;;;;;;14.52;4.32;;;18.70;90.20;;;;;;4952112;29;20046;-83
2023/10/07 22:20:44;;;;;;;14.32;4.60;;;18.70;90.20;;;;;;4952499;29;20031;-83
2023/10/07 22:23:10;;;;;;;11.85;3.38;;;18.70;90.30;;;;;;4952289;29;20073;-84
2023/10/07 22:25:46;;;;;;;10.40;3.03;;;18.70;90.30;;;;;;4952604;29;20104;-83
2023/10/07 22:28:11;;;;;;;11.40;3.40;;;18.70;90.40;;;;;;4952711;29;20038;-84
2023/10/07 22:30:49;;;;;;;16.67;4.18;;;18.60;90.50;;;;;;4934614;29;20388;-82
2023/10/07 22:33:16;;;;;;;15.82;4.15;;;18.60;90.60;;;;;;4934941;28;20510;-84
2023/10/07 22:35:45;;;;;;;13.90;4.28;;;18.70;90.70;;;;;;4952360;29;20032;-83
2023/10/07 22:38:18;;;;;;;12.40;3.55;;;18.60;90.80;;;;;;4935052;29;20043;-83
2023/10/07 22:40:49;;;;;;;11.88;3.35;;;18.60;90.70;;;;;;4951943;29;20047;-83
2023/10/07 22:43:16;;;;;;;15.32;3.78;;;18.60;90.90;;;;;;4935124;29;20043;-83
2023/10/07 22:45:43;;;;;;;13.55;4.05;;;18.60;90.90;;;;;;4955448;29;20384;-83
2023/10/07 22:48:20;;;;;;;11.35;4.20;;;18.60;91.10;;;;;;4946383;29;20035;-84
2023/10/07 22:51:00;;;;;;;14.55;3.97;;;18.50;91.00;;;;;;4942605;29;20087;-82
2023/10/07 22:53:29;;;;;;;14.93;4.28;;;18.50;91.10;;;;;;4959285;29;20043;-83
2023/10/07 22:55:57;;;;;;;11.45;4.13;;;18.50;91.20;;;;;;4944277;29;20425;-83
2023/10/07 22:58:33;;;;;;;10.65;3.90;;;18.50;91.20;;;;;;4939444;29;20023;-84
2023/10/07 23:01:03;;;;;;;13.60;3.00;;;18.50;91.30;;;;;;4955632;29;20035;-84
2023/10/07 23:03:36;;;;;;;18.42;3.92;;;18.50;91.30;;;;;;4938120;29;20035;-84
2023/10/07 23:06:17;;;;;;;10.27;3.25;;;18.50;91.40;;;;;;4955377;29;20037;-83
2023/10/07 23:11:24;;;;;;;13.85;4.53;;;18.50;91.70;;;;;;4955457;29;20522;-83
2023/10/07 23:14:06;;;;;;;19.13;4.63;;;18.50;91.80;;;;;;4938209;29;20035;-84
2023/10/07 23:16:37;;;;;;;16.67;4.20;;;18.50;92.00;;;;;;4954152;29;20027;-83
2023/10/07 23:19:08;;;;;;;15.93;3.78;;;18.50;92.10;;;;;;4954838;29;20039;-84
2023/10/07 23:21:44;;;;;;;15.80;4.10;;;18.40;92.20;;;;;;4955362;29;20059;-84
2023/10/07 23:24:11;;;;;;;10.73;3.45;;;18.50;92.20;;;;;;4955538;29;20073;-84
2023/10/07 23:26:41;;;;;;;15.10;4.13;;;18.40;92.30;;;;;;4954897;29;20035;-84
2023/10/07 23:29:08;;;;;;;13.18;3.80;;;18.40;92.40;;;;;;4953846;29;20114;-83
2023/10/07 23:31:35;;;;;;;14.40;3.63;;;18.40;92.40;;;;;;4955116;29;20065;-83
2023/10/07 23:34:27;;;;;;;19.70;4.53;;;18.40;92.50;;;;;;4937510;29;20028;-84
2023/10/07 23:36:53;;;;;;;15.02;3.33;;;18.40;92.60;;;;;;4954588;29;20543;-84
2023/10/07 23:39:20;;;;;;;14.90;4.55;;;18.40;92.70;;;;;;4955074;29;20062;-84
2023/10/07 23:41:47;;;;;;;14.05;4.28;;;18.40;92.70;;;;;;4955005;29;20069;-83
2023/10/07 23:44:15;;;;;;;13.45;3.90;;;18.40;92.80;;;;;;4954729;29;20071;-84
2023/10/07 23:46:45;;;;;;;11.77;3.75;;;18.40;92.90;;;;;;4957513;28;20062;-83
2023/10/07 23:49:14;;;;;;;12.48;3.80;;;18.40;93.00;;;;;;4958265;29;20060;-84
2023/10/07 23:51:45;;;;;;;11.88;3.55;;;18.40;93.30;;;;;;4959060;29;20066;-84
2023/10/07 23:54:14;;;;;;;17.50;4.75;;;18.40;93.30;;;;;;4958696;29;20059;-83
2023/10/07 23:56:44;;;;;;;19.80;4.18;;;18.40;93.50;;;;;;4958843;29;20036;-82
2023/10/07 23:59:11;;;;;;;15.38;4.15;;;18.40;93.80;;;;;;4958580;29;20031;-84
